createdAt,value
2022-09-26T00:00:17.439Z,12.67
2022-09-26T00:03:06.804Z,11.57
2022-09-26T00:05:38.624Z,12.43
2022-09-26T00:08:09.318Z,13.57
2022-09-26T00:13:07.883Z,12.70
2022-09-26T00:15:37.207Z,12.45
2022-09-26T00:18:07.029Z,12.20
2022-09-26T00:20:38.843Z,11.43
2022-09-26T00:23:08.734Z,12.00
2022-09-26T00:25:38.134Z,11.55
2022-09-26T00:28:07.512Z,12.30
2022-09-26T00:30:38.928Z,11.65
2022-09-26T00:33:08.262Z,11.95
2022-09-26T00:35:40.299Z,10.05
2022-09-26T00:38:09.591Z,11.13
2022-09-26T00:40:39.232Z,10.82
2022-09-26T00:43:28.634Z,11.85
2022-09-26T00:46:02.103Z,11.30
2022-09-26T00:48:32.201Z,11.23
2022-09-26T00:51:03.558Z,10.88
2022-09-26T00:53:37.396Z,11.18
2022-09-26T00:56:11.145Z,10.40
2022-09-26T00:58:43.586Z,11.32
2022-09-26T01:01:13.861Z,11.77
2022-09-26T01:03:45.047Z,11.32
2022-09-26T01:06:17.614Z,11.43
2022-09-26T01:08:51.674Z,11.70
2022-09-26T01:11:22.331Z,10.77
2022-09-26T01:13:54.290Z,11.23
2022-09-26T01:16:24.225Z,12.30
2022-09-26T01:18:53.650Z,10.02
2022-09-26T01:21:54.586Z,9.40
2022-09-26T01:24:49.397Z,10.27
2022-09-26T01:27:45.762Z,10.60
2022-09-26T01:30:21.729Z,11.23
2022-09-26T01:33:30.466Z,11.32
2022-09-26T01:36:28.961Z,11.20
2022-09-26T01:39:09.565Z,11.50
2022-09-26T01:41:47.502Z,11.30
2022-09-26T01:44:35.971Z,11.32
2022-09-26T01:47:15.170Z,12.13
2022-09-26T01:49:54.254Z,10.95
2022-09-26T01:52:31.434Z,12.25
2022-09-26T01:55:08.073Z,11.55
2022-09-26T01:57:42.691Z,11.27
2022-09-26T02:00:13.360Z,11.57
2022-09-26T02:05:22.140Z,12.25
2022-09-26T02:07:56.665Z,13.68
2022-09-26T02:10:29.910Z,12.02
2022-09-26T02:13:06.293Z,11.70
2022-09-26T02:15:38.519Z,12.25
2022-09-26T02:18:16.665Z,11.57
2022-09-26T02:20:51.016Z,12.02
2022-09-26T02:23:20.687Z,12.35
2022-09-26T02:25:50.255Z,11.45
2022-09-26T02:28:19.674Z,11.48
2022-09-26T02:30:51.746Z,12.67
2022-09-26T02:33:22.486Z,11.32
2022-09-26T02:35:59.012Z,10.68
2022-09-26T02:38:32.183Z,10.95
2022-09-26T02:41:09.277Z,10.45
2022-09-26T02:44:04.216Z,9.90
2022-09-26T02:47:03.918Z,11.15
2022-09-26T02:49:51.488Z,10.43
2022-09-26T02:52:35.715Z,11.15
2022-09-26T02:55:14.950Z,10.23
2022-09-26T02:57:53.810Z,10.75
2022-09-26T03:00:25.778Z,10.90
2022-09-26T03:03:03.369Z,11.13
2022-09-26T03:05:36.529Z,11.18
2022-09-26T03:08:11.922Z,11.45
2022-09-26T03:10:43.734Z,10.40
2022-09-26T03:13:15.869Z,10.30
2022-09-26T03:15:48.801Z,12.05
2022-09-26T03:18:22.140Z,11.85
2022-09-26T03:20:54.540Z,11.25
2022-09-26T03:23:24.887Z,11.70
2022-09-26T03:26:02.137Z,12.57
2022-09-26T03:28:37.465Z,11.02
2022-09-26T03:31:07.905Z,12.13
2022-09-26T03:33:37.922Z,10.98
2022-09-26T03:36:10.947Z,10.75
2022-09-26T03:38:41.125Z,10.70
2022-09-26T03:41:11.198Z,11.68
2022-09-26T03:43:44.263Z,12.33
2022-09-26T03:46:16.105Z,11.60
2022-09-26T03:48:45.640Z,11.65
2022-09-26T03:51:17.051Z,11.18
2022-09-26T03:53:47.627Z,11.30
2022-09-26T03:56:19.405Z,11.75
2022-09-26T03:58:50.732Z,11.40
2022-09-26T04:01:22.337Z,12.52
2022-09-26T04:03:52.545Z,11.82
2022-09-26T04:06:24.358Z,12.90
2022-09-26T04:08:54.748Z,11.60
2022-09-26T04:11:25.836Z,12.70
2022-09-26T04:16:25.173Z,13.15
2022-09-26T04:18:57.696Z,12.10
2022-09-26T04:21:29.973Z,13.50
2022-09-26T04:23:59.610Z,11.98
2022-09-26T04:26:29.646Z,13.40
2022-09-26T04:28:59.611Z,13.95
2022-09-26T04:31:29.576Z,13.77
2022-09-26T04:34:00.566Z,14.30
2022-09-26T04:36:31.641Z,13.55
2022-09-26T04:39:01.991Z,14.32
2022-09-26T04:41:32.975Z,13.98
2022-09-26T04:44:02.914Z,14.07
2022-09-26T04:46:32.767Z,15.63
2022-09-26T04:49:03.000Z,15.93
2022-09-26T04:51:34.577Z,13.98
2022-09-26T04:54:03.965Z,16.60
2022-09-26T04:56:34.003Z,17.50
2022-09-26T04:59:03.466Z,17.88
2022-09-26T05:01:33.055Z,17.77
2022-09-26T05:04:04.756Z,16.53
2022-09-26T05:06:36.733Z,17.70
2022-09-26T05:09:06.692Z,17.70
2022-09-26T05:11:35.957Z,18.80
2022-09-26T05:14:05.820Z,19.45
2022-09-26T05:16:35.135Z,22.77
2022-09-26T05:19:05.390Z,25.08
2022-09-26T05:21:34.678Z,26.17
2022-09-26T05:24:23.266Z,27.05
2022-09-26T05:26:54.338Z,28.25
2022-09-26T05:29:23.751Z,26.85
2022-09-26T05:31:54.970Z,28.05
2022-09-26T05:34:26.386Z,28.17
2022-09-26T05:36:56.787Z,26.92
2022-09-26T05:39:45.590Z,26.48
2022-09-26T05:42:15.647Z,27.95
2022-09-26T05:44:45.412Z,28.23
2022-09-26T05:47:14.847Z,25.85
2022-09-26T05:49:44.474Z,26.40
2022-09-26T05:52:14.034Z,27.58
2022-09-26T05:54:44.750Z,27.02
2022-09-26T05:57:14.214Z,26.10
2022-09-26T05:59:44.309Z,25.23
2022-09-26T06:02:17.240Z,24.50
2022-09-26T06:04:50.288Z,23.92
2022-09-26T06:07:19.694Z,23.77
2022-09-26T06:09:50.649Z,22.65
2022-09-26T06:12:21.486Z,23.60
2022-09-26T06:14:52.262Z,23.30
2022-09-26T06:17:21.820Z,22.73
2022-09-26T06:19:51.331Z,22.00
2022-09-26T06:22:20.994Z,22.42
2022-09-26T06:24:52.003Z,22.30
2022-09-26T06:27:22.785Z,21.90
2022-09-26T06:29:52.092Z,22.63
2022-09-26T06:32:21.819Z,19.40
2022-09-26T06:34:52.062Z,20.80
2022-09-26T06:37:21.435Z,22.42
2022-09-26T06:39:55.815Z,21.95
2022-09-26T06:42:28.575Z,20.92
2022-09-26T06:44:58.635Z,20.70
2022-09-26T06:47:30.071Z,19.77
2022-09-26T06:49:59.922Z,21.17
2022-09-26T06:52:35.088Z,18.63
2022-09-26T06:55:08.837Z,19.13
2022-09-26T06:57:42.793Z,19.92
2022-09-26T07:00:14.711Z,19.15
2022-09-26T07:02:52.473Z,21.92
2022-09-26T07:05:22.653Z,20.27
2022-09-26T07:07:53.606Z,18.52
2022-09-26T07:10:25.154Z,18.05
2022-09-26T07:12:55.388Z,19.08
2022-09-26T07:17:54.767Z,17.13
2022-09-26T07:20:24.408Z,17.92
2022-09-26T07:22:53.882Z,17.67
2022-09-26T07:25:24.701Z,16.60
2022-09-26T07:27:54.612Z,16.25
2022-09-26T07:30:24.393Z,16.73
2022-09-26T07:32:53.715Z,15.98
2022-09-26T07:35:24.094Z,16.43
2022-09-26T07:37:54.284Z,15.75
2022-09-26T07:40:25.596Z,17.23
2022-09-26T07:43:18.139Z,16.90
2022-09-26T07:46:02.569Z,15.80
2022-09-26T07:48:51.222Z,16.05
2022-09-26T07:51:22.931Z,14.50
2022-09-26T07:53:52.832Z,17.25
2022-09-26T07:56:24.169Z,15.65
2022-09-26T07:58:55.668Z,16.65
2022-09-26T08:01:26.272Z,16.92
2022-09-26T08:03:57.661Z,16.75
2022-09-26T08:06:28.253Z,16.25
2022-09-26T08:08:58.441Z,16.58
2022-09-26T08:13:58.780Z,15.45
2022-09-26T08:16:28.927Z,16.55
2022-09-26T08:21:28.310Z,13.65
2022-09-26T08:23:57.790Z,14.32
2022-09-26T08:26:29.106Z,13.60
2022-09-26T08:29:00.190Z,13.90
2022-09-26T08:31:30.290Z,12.85
2022-09-26T08:33:59.757Z,14.52
2022-09-26T08:36:29.101Z,13.95
2022-09-26T08:38:59.713Z,12.18
2022-09-26T08:41:46.439Z,11.85
2022-09-26T08:44:33.810Z,11.82
2022-09-26T08:47:07.082Z,10.80
2022-09-26T08:50:01.993Z,9.77
2022-09-26T08:52:37.799Z,11.05
2022-09-26T08:55:14.895Z,9.95
2022-09-26T08:57:51.617Z,11.00
2022-09-26T09:00:25.134Z,9.25
2022-09-26T09:03:04.431Z,9.52
2022-09-26T09:05:35.602Z,9.03
2022-09-26T09:08:08.527Z,8.20
2022-09-26T09:10:47.098Z,8.60
2022-09-26T09:13:32.846Z,11.65
2022-09-26T09:16:16.351Z,14.77
2022-09-26T09:18:52.789Z,15.07
2022-09-26T09:21:32.100Z,14.25
2022-09-26T09:24:20.900Z,13.13
2022-09-26T09:30:16.505Z,10.35
2022-09-26T09:32:52.749Z,8.80
2022-09-26T09:35:30.042Z,8.55
2022-09-26T09:38:00.428Z,7.47
2022-09-26T09:40:34.805Z,8.63
2022-09-26T09:43:07.816Z,7.60
2022-09-26T09:45:45.119Z,7.50
2022-09-26T09:48:15.368Z,7.13
2022-09-26T09:50:53.309Z,8.38
2022-09-26T09:53:39.990Z,7.75
2022-09-26T09:56:16.577Z,7.75
2022-09-26T09:59:03.901Z,8.13
2022-09-26T10:01:39.461Z,7.65
2022-09-26T10:04:15.978Z,7.70
2022-09-26T10:06:47.350Z,7.22
2022-09-26T10:09:35.668Z,7.40
2022-09-26T10:12:16.502Z,7.03
2022-09-26T10:14:51.925Z,6.88
2022-09-26T10:17:24.617Z,7.32
2022-09-26T10:19:54.439Z,6.47
2022-09-26T10:22:32.882Z,5.78
2022-09-26T10:25:05.039Z,6.05
2022-09-26T10:27:38.211Z,6.07
2022-09-26T10:30:26.093Z,6.05
2022-09-26T10:33:00.315Z,6.18
2022-09-26T10:35:41.747Z,5.90
2022-09-26T10:38:22.185Z,5.65
2022-09-26T10:43:30.929Z,5.25
2022-09-26T10:46:10.647Z,5.05
2022-09-26T10:48:49.253Z,6.70
2022-09-26T10:51:25.549Z,5.43
2022-09-26T10:53:58.134Z,4.95
2022-09-26T10:56:30.930Z,5.28
2022-09-26T10:59:07.706Z,5.72
2022-09-26T11:01:43.384Z,4.63
2022-09-26T11:04:37.763Z,3.40
2022-09-26T11:07:09.310Z,4.30
2022-09-26T11:09:39.889Z,4.90
2022-09-26T11:12:25.647Z,4.30
2022-09-26T11:15:00.825Z,4.47
2022-09-26T11:17:45.413Z,4.07
2022-09-26T11:20:25.846Z,4.70
2022-09-26T11:23:06.910Z,4.80
2022-09-26T11:25:46.632Z,5.50
2022-09-26T11:28:24.142Z,4.90
2022-09-26T11:30:59.675Z,5.28
2022-09-26T11:33:30.581Z,5.00
2022-09-26T11:36:30.026Z,5.18
2022-09-26T11:39:04.086Z,4.50
2022-09-26T11:41:47.002Z,5.15
2022-09-26T11:44:39.642Z,4.07
2022-09-26T11:47:41.583Z,4.47
2022-09-26T11:50:41.260Z,5.68
2022-09-26T11:53:34.510Z,5.03
2022-09-26T11:56:20.430Z,5.22
2022-09-26T11:58:55.937Z,5.65
2022-09-26T12:01:32.384Z,5.43
2022-09-26T12:04:17.631Z,4.72
2022-09-26T12:06:56.309Z,4.72
2022-09-26T12:09:53.461Z,5.50
2022-09-26T12:12:29.746Z,5.03
2022-09-26T12:15:15.259Z,4.65
2022-09-26T12:17:59.914Z,5.45
2022-09-26T12:20:36.625Z,4.72
2022-09-26T12:23:15.126Z,4.10
2022-09-26T12:25:59.369Z,4.35
2022-09-26T12:28:54.072Z,5.18
2022-09-26T12:31:34.345Z,4.57
2022-09-26T12:34:19.002Z,5.15
2022-09-26T12:37:02.197Z,5.25
2022-09-26T12:40:06.735Z,4.80
2022-09-26T12:43:01.987Z,4.70
2022-09-26T12:45:53.277Z,4.15
2022-09-26T12:48:32.588Z,5.05
2022-09-26T12:51:20.151Z,4.68
2022-09-26T12:54:14.555Z,4.55
2022-09-26T12:56:51.861Z,3.72
2022-09-26T12:59:38.544Z,4.50
2022-09-26T13:02:34.599Z,3.80
2022-09-26T13:05:39.761Z,4.15
2022-09-26T13:08:15.835Z,4.53
2022-09-26T13:10:59.796Z,3.75
2022-09-26T13:14:10.942Z,3.78
2022-09-26T13:16:52.174Z,4.15
2022-09-26T13:19:31.220Z,3.90
2022-09-26T13:22:03.330Z,3.78
2022-09-26T13:24:42.474Z,4.30
2022-09-26T13:27:18.104Z,4.30
2022-09-26T13:29:58.072Z,5.00
2022-09-26T13:32:36.085Z,4.30
2022-09-26T13:35:14.979Z,4.38
2022-09-26T13:37:59.858Z,5.57
2022-09-26T13:40:42.401Z,4.28
2022-09-26T13:43:27.134Z,4.03
2022-09-26T13:46:06.679Z,3.30
2022-09-26T13:48:52.071Z,3.70
2022-09-26T13:51:27.944Z,2.80
2022-09-26T13:54:05.304Z,2.75
2022-09-26T13:56:48.143Z,3.25
2022-09-26T13:59:34.701Z,1.45
2022-09-26T14:02:25.415Z,2.50
2022-09-26T14:05:30.554Z,2.63
2022-09-26T14:08:17.691Z,2.20
2022-09-26T14:10:55.146Z,1.80
2022-09-26T14:13:36.281Z,1.60
2022-09-26T14:16:06.951Z,2.35
2022-09-26T14:18:59.432Z,2.50
2022-09-26T14:21:58.682Z,1.90
2022-09-26T14:24:32.334Z,1.95
2022-09-26T14:27:34.435Z,2.60
2022-09-26T14:30:25.066Z,2.22
2022-09-26T14:33:02.274Z,2.70
2022-09-26T14:35:34.331Z,1.80
2022-09-26T14:38:11.075Z,2.78
2022-09-26T14:40:41.259Z,2.50
2022-09-26T14:43:16.638Z,2.17
2022-09-26T14:45:50.153Z,3.15
2022-09-26T14:48:37.580Z,2.95
2022-09-26T14:51:27.814Z,2.63
2022-09-26T14:54:05.091Z,2.55
2022-09-26T14:56:46.751Z,2.42
2022-09-26T14:59:40.346Z,2.58
2022-09-26T15:02:24.677Z,2.50
2022-09-26T15:05:14.070Z,2.58
2022-09-26T15:07:47.442Z,2.30
2022-09-26T15:10:37.173Z,2.60
2022-09-26T15:13:20.261Z,2.70
2022-09-26T15:15:56.616Z,2.42
2022-09-26T15:18:36.158Z,3.20
2022-09-26T15:21:12.549Z,2.35
2022-09-26T15:23:50.994Z,2.55
2022-09-26T15:26:25.138Z,2.38
2022-09-26T15:28:58.108Z,2.38
2022-09-26T15:31:30.234Z,2.63
2022-09-26T15:34:04.736Z,2.50
2022-09-26T15:36:37.955Z,2.15
2022-09-26T15:39:37.334Z,2.55
2022-09-26T15:42:42.388Z,2.88
2022-09-26T15:45:27.368Z,3.03
2022-09-26T15:47:59.015Z,2.53
2022-09-26T15:50:37.038Z,2.58
2022-09-26T15:53:13.260Z,2.10
2022-09-26T15:55:49.838Z,2.22
2022-09-26T15:58:26.196Z,3.50
2022-09-26T16:00:56.472Z,3.00
2022-09-26T16:03:45.642Z,2.58
2022-09-26T16:06:32.339Z,2.93
2022-09-26T16:09:17.682Z,2.85
2022-09-26T16:11:50.393Z,2.38
2022-09-26T16:14:41.613Z,3.25
2022-09-26T16:17:22.278Z,4.15
2022-09-26T16:19:54.655Z,3.15
2022-09-26T16:22:45.751Z,3.50
2022-09-26T16:25:37.077Z,2.75
2022-09-26T16:28:42.217Z,3.20
2022-09-26T16:31:23.535Z,3.55
2022-09-26T16:33:54.726Z,3.33
2022-09-26T16:36:26.113Z,3.35
2022-09-26T16:39:01.273Z,3.42
2022-09-26T16:42:00.207Z,3.40
2022-09-26T16:44:34.436Z,6.15
2022-09-26T16:47:07.761Z,7.30
2022-09-26T16:49:47.505Z,8.00
2022-09-26T16:52:30.910Z,6.07
2022-09-26T16:55:02.136Z,4.95
2022-09-26T16:57:33.993Z,4.95
2022-09-26T17:00:24.873Z,6.18
2022-09-26T17:02:56.023Z,6.28
2022-09-26T17:05:26.031Z,6.82
2022-09-26T17:07:55.505Z,6.00
2022-09-26T17:10:27.082Z,6.80
2022-09-26T17:12:56.827Z,7.20
2022-09-26T17:15:29.874Z,9.52
2022-09-26T17:18:01.588Z,9.77
2022-09-26T17:20:31.282Z,9.15
2022-09-26T17:23:12.160Z,9.47
2022-09-26T17:25:56.826Z,10.43
2022-09-26T17:28:32.493Z,14.32
2022-09-26T17:31:06.650Z,12.82
2022-09-26T17:33:43.325Z,11.48
2022-09-26T17:36:23.514Z,13.10
2022-09-26T17:38:54.909Z,22.42
2022-09-26T17:46:29.851Z,27.52
2022-09-26T17:49:05.461Z,24.83
2022-09-26T17:51:36.450Z,25.30
2022-09-26T17:54:08.106Z,21.15
2022-09-26T17:56:37.681Z,26.40
2022-09-26T17:59:14.730Z,24.88
2022-09-26T18:01:44.325Z,21.20
2022-09-26T18:04:18.159Z,22.88
2022-09-26T18:06:48.290Z,18.65
2022-09-26T18:09:19.615Z,18.63
2022-09-26T18:11:56.168Z,17.75
2022-09-26T18:14:26.269Z,17.77
2022-09-26T18:16:55.753Z,18.63
2022-09-26T18:19:26.828Z,16.88
2022-09-26T18:21:59.327Z,12.15
2022-09-26T18:24:31.325Z,14.98
2022-09-26T18:27:07.468Z,12.43
2022-09-26T18:29:40.589Z,10.90
2022-09-26T18:32:18.287Z,10.57
2022-09-26T18:34:49.245Z,9.73
2022-09-26T18:37:19.247Z,9.95
2022-09-26T18:39:54.335Z,10.52
2022-09-26T18:42:25.550Z,9.93
2022-09-26T18:45:03.880Z,11.32
2022-09-26T18:47:40.975Z,10.38
2022-09-26T18:50:23.053Z,10.63
2022-09-26T18:52:53.046Z,10.35
2022-09-26T18:55:42.822Z,10.50
2022-09-26T18:58:27.595Z,8.97
2022-09-26T19:00:59.920Z,11.15
2022-09-26T19:03:32.134Z,9.25
2022-09-26T19:06:06.498Z,7.93
2022-09-26T19:08:38.610Z,6.97
2022-09-26T19:11:13.469Z,5.97
2022-09-26T19:13:43.665Z,6.68
2022-09-26T19:16:13.820Z,8.32
2022-09-26T19:18:43.961Z,10.35
2022-09-26T19:21:22.141Z,10.82
2022-09-26T19:23:53.025Z,10.82
2022-09-26T19:26:28.265Z,11.38
2022-09-26T19:29:00.276Z,12.75
2022-09-26T19:31:31.002Z,11.45
2022-09-26T19:34:00.844Z,10.45
2022-09-26T19:36:31.790Z,12.65
2022-09-26T19:41:31.072Z,11.70
2022-09-26T19:44:00.607Z,12.95
2022-09-26T19:46:30.974Z,11.57
2022-09-26T19:49:02.059Z,11.70
2022-09-26T19:51:35.581Z,11.55
2022-09-26T19:54:06.547Z,12.88
2022-09-26T19:56:36.261Z,12.98
2022-09-26T19:59:06.228Z,12.00
2022-09-26T20:01:35.854Z,13.32
2022-09-26T20:04:05.425Z,12.57
2022-09-26T20:06:36.914Z,11.18
2022-09-26T20:11:36.121Z,13.50
2022-09-26T20:14:22.465Z,12.32
2022-09-26T20:16:53.437Z,12.95
2022-09-26T20:19:38.404Z,12.27
2022-09-26T20:22:16.765Z,13.07
2022-09-26T20:24:48.509Z,13.65
2022-09-26T20:27:20.948Z,12.77
2022-09-26T20:30:08.580Z,12.75
2022-09-26T20:32:40.481Z,12.77
2022-09-26T20:35:12.967Z,12.73
2022-09-26T20:37:45.581Z,13.45
2022-09-26T20:40:19.096Z,14.32
2022-09-26T20:42:51.930Z,13.63
2022-09-26T20:45:26.158Z,12.55
2022-09-26T20:47:56.765Z,13.40
2022-09-26T20:50:29.444Z,13.70
2022-09-26T20:53:03.677Z,13.05
2022-09-26T20:55:33.753Z,12.00
2022-09-26T20:58:04.113Z,12.82
2022-09-26T21:00:33.947Z,11.15
2022-09-26T21:03:03.992Z,11.55
2022-09-26T21:05:34.030Z,11.07
2022-09-26T21:08:11.878Z,11.07
2022-09-26T21:10:41.265Z,11.80
2022-09-26T21:13:11.327Z,11.77
2022-09-26T21:15:43.487Z,12.93
2022-09-26T21:18:26.083Z,11.93
2022-09-26T21:20:56.902Z,13.23
2022-09-26T21:23:28.144Z,12.93
2022-09-26T21:28:28.480Z,13.32
2022-09-26T21:31:01.700Z,12.93
2022-09-26T21:33:31.259Z,13.48
2022-09-26T21:36:01.331Z,11.50
2022-09-26T21:38:32.211Z,11.90
2022-09-26T21:41:03.948Z,10.63
2022-09-26T21:43:38.294Z,9.45
2022-09-26T21:46:08.818Z,10.00
2022-09-26T21:48:38.343Z,10.00
2022-09-26T21:51:09.004Z,9.15
2022-09-26T21:56:14.897Z,9.88
2022-09-26T21:58:45.787Z,9.82
2022-09-26T22:01:15.672Z,10.65
2022-09-26T22:03:45.107Z,10.20
2022-09-26T22:06:15.077Z,10.77
2022-09-26T22:08:45.989Z,9.93
2022-09-26T22:11:15.713Z,10.38
2022-09-26T22:13:45.235Z,10.95
2022-09-26T22:16:15.947Z,10.57
2022-09-26T22:18:46.138Z,9.65
2022-09-26T22:21:15.648Z,10.55
2022-09-26T22:23:46.645Z,11.52
2022-09-26T22:26:16.694Z,10.32
2022-09-26T22:28:46.210Z,11.38
2022-09-26T22:31:15.967Z,10.00
2022-09-26T22:33:45.818Z,11.13
2022-09-26T22:36:16.578Z,9.65
2022-09-26T22:38:48.054Z,9.43
2022-09-26T22:41:18.116Z,8.55
2022-09-26T22:43:49.455Z,8.95
2022-09-26T22:46:19.625Z,8.57
2022-09-26T22:48:49.366Z,8.27
2022-09-26T22:51:19.744Z,8.45
2022-09-26T22:53:51.231Z,8.77
2022-09-26T22:58:52.237Z,8.75
2022-09-26T23:01:24.244Z,8.93
2022-09-26T23:03:54.731Z,9.13
2022-09-26T23:06:25.524Z,10.73
2022-09-26T23:08:56.878Z,9.10
2022-09-26T23:11:28.116Z,10.15
2022-09-26T23:13:58.217Z,8.80
2022-09-26T23:16:28.975Z,9.43
2022-09-26T23:18:59.982Z,9.43
2022-09-26T23:21:30.037Z,9.82
2022-09-26T23:24:01.210Z,10.38
2022-09-26T23:26:32.228Z,9.18
2022-09-26T23:29:02.260Z,11.50
2022-09-26T23:31:31.643Z,10.25
2022-09-26T23:34:00.995Z,11.40
2022-09-26T23:36:30.649Z,10.93
2022-09-26T23:39:01.503Z,10.93
2022-09-26T23:44:01.199Z,11.00
2022-09-26T23:46:30.689Z,10.93
2022-09-26T23:49:00.136Z,11.10
2022-09-26T23:51:29.772Z,11.85
2022-09-26T23:53:59.088Z,12.05
2022-09-26T23:56:29.962Z,11.65
2022-09-26T23:58:59.920Z,11.40
